Check out our new PWSWeather beta!
PWSweather.com
Personal Weather Stations
Station Observations
RW002
Arlington, VA 22207

Arlington, VA 22207

Lat: 38.8955, Lon: -77.1443

Elevation: 390

Station Type: Davis Vantage Pro II

jp_angelone@msn.com

High Low Average
Temperature 52.2°F11.2°C 41.1°F5.1°C 45.4°F7.4°C
Dew Point 33.4°F0.8°C 30.0°F-1.1°C 31.5°F-0.3°C
Winds 20.0 mph 32.2 kmh Calm Calm 6.0 mph NW9.7 kmh NW
Wind Gusts 31.0 mph49.9 kmh -- 18.0 mph29.0 kmh
Humidity 69% 46% 58%
Pressure 30.25 in1024.4 mb 29.78 in1008.5 mb -
Precipitation 0.00 in0.0 mm - -
Hour Temp Dew Point Humidity Winds Wind Gusts Pressure Precip Precip Rate Daily Precip Total
12:02 AM 52.2°F11.2°C 33.1°F0.6°C 48% Calm Calm 9.0 mph14.5 kmh 29.78 in1008.5 mb 0.00 in0.0 mm 0.00 in0.0 mm 0.00 in0.0 mm
12:07 AM 52.0°F11.1°C 32.9°F0.5°C 48% Calm Calm 3.0 mph4.8 kmh 29.79 in1008.8 mb 0.00 in0.0 mm 0.00 in0.0 mm 0.00 in0.0 mm
12:12 AM 52.0°F11.1°C 32.9°F0.5°C 48% Calm Calm 8.0 mph12.9 kmh 29.79 in1008.8 mb 0.00 in0.0 mm 0.00 in0.0 mm 0.00 in0.0 mm
12:17 AM 52.0°F11.1°C 33.4°F0.8°C 49% Calm Calm -- 29.79 in1008.8 mb 0.00 in0.0 mm 0.00 in0.0 mm 0.00 in0.0 mm
12:22 AM 51.8°F11.0°C 33.3°F0.7°C 49% Calm Calm 2.0 mph3.2 kmh 29.79 in1008.8 mb 0.00 in0.0 mm 0.00 in0.0 mm 0.00 in0.0 mm
12:27 AM 51.7°F10.9°C 33.2°F0.7°C 49% Calm Calm 1.0 mph1.6 kmh 29.79 in1008.8 mb 0.00 in0.0 mm 0.00 in0.0 mm 0.00 in0.0 mm
12:32 AM 51.4°F10.8°C 32.9°F0.5°C 49% 4.0 mph NW6.4 kmh NW 11.0 mph17.7 kmh 29.79 in1008.8 mb 0.00 in0.0 mm 0.00 in0.0 mm 0.00 in0.0 mm
12:37 AM 51.1°F10.6°C 32.6°F0.3°C 49% 5.0 mph WSW8.0 kmh WSW 11.0 mph17.7 kmh 29.79 in1008.8 mb 0.00 in0.0 mm 0.00 in0.0 mm 0.00 in0.0 mm
12:42 AM 50.9°F10.5°C 32.4°F0.2°C 49% Calm Calm 12.0 mph19.3 kmh 29.79 in1008.8 mb 0.00 in0.0 mm 0.00 in0.0 mm 0.00 in0.0 mm
12:47 AM 50.7°F10.4°C 32.2°F0.1°C 49% 6.0 mph N9.7 kmh N 12.0 mph19.3 kmh 29.80 in1009.1 mb 0.00 in0.0 mm 0.00 in0.0 mm 0.00 in0.0 mm
12:52 AM 50.6°F10.3°C 31.6°F-0.2°C 48% Calm Calm 12.0 mph19.3 kmh 29.80 in1009.1 mb 0.00 in0.0 mm 0.00 in0.0 mm 0.00 in0.0 mm
12:57 AM 50.5°F10.3°C 32.1°F0.1°C 49% 4.0 mph NW6.4 kmh NW 16.0 mph25.7 kmh 29.80 in1009.1 mb 0.00 in0.0 mm 0.00 in0.0 mm 0.00 in0.0 mm
01:02 AM 50.3°F10.2°C 31.9°F-0.1°C 49% 2.0 mph NE3.2 kmh NE 16.0 mph25.7 kmh 29.80 in1009.1 mb 0.00 in0.0 mm 0.00 in0.0 mm 0.00 in0.0 mm
01:07 AM 50.3°F10.2°C 31.9°F-0.1°C 49% 6.0 mph WNW9.7 kmh WNW 16.0 mph25.7 kmh 29.80 in1009.1 mb 0.00 in0.0 mm 0.00 in0.0 mm 0.00 in0.0 mm
01:12 AM 50.3°F10.2°C 31.4°F-0.3°C 48% 20.0 mph NW32.2 kmh NW 24.0 mph38.6 kmh 29.80 in1009.1 mb 0.00 in0.0 mm 0.00 in0.0 mm 0.00 in0.0 mm
01:17 AM 50.4°F10.2°C 31.5°F-0.3°C 48% 9.0 mph SW14.5 kmh SW 29.0 mph46.7 kmh 29.81 in1009.5 mb 0.00 in0.0 mm 0.00 in0.0 mm 0.00 in0.0 mm
01:22 AM 50.5°F10.3°C 30.5°F-0.8°C 46% 13.0 mph NE20.9 kmh NE 31.0 mph49.9 kmh 29.82 in1009.8 mb 0.00 in0.0 mm 0.00 in0.0 mm 0.00 in0.0 mm
01:27 AM 50.5°F10.3°C 30.5°F-0.8°C 46% 4.0 mph NNW6.4 kmh NNW 31.0 mph49.9 kmh 29.81 in1009.5 mb 0.00 in0.0 mm 0.00 in0.0 mm 0.00 in0.0 mm
01:32 AM 50.3°F10.2°C 30.8°F-0.7°C 47% 6.0 mph NW9.7 kmh NW 31.0 mph49.9 kmh 29.82 in1009.8 mb 0.00 in0.0 mm 0.00 in0.0 mm 0.00 in0.0 mm
01:37 AM 50.2°F10.1°C 30.2°F-1.0°C 46% 11.0 mph NW17.7 kmh NW 31.0 mph49.9 kmh 29.83 in1010.2 mb 0.00 in0.0 mm 0.00 in0.0 mm 0.00 in0.0 mm
01:42 AM 50.0°F10.0°C 30.0°F-1.1°C 46% 10.0 mph NNW16.1 kmh NNW 30.0 mph48.3 kmh 29.83 in1010.2 mb 0.00 in0.0 mm 0.00 in0.0 mm 0.00 in0.0 mm
01:47 AM 49.8°F9.9°C 30.4°F-0.9°C 47% 6.0 mph NW9.7 kmh NW 30.0 mph48.3 kmh 29.84 in1010.5 mb 0.00 in0.0 mm 0.00 in0.0 mm 0.00 in0.0 mm
01:52 AM 49.6°F9.8°C 30.2°F-1.0°C 47% 13.0 mph WNW20.9 kmh WNW 27.0 mph43.5 kmh 29.83 in1010.2 mb 0.00 in0.0 mm 0.00 in0.0 mm 0.00 in0.0 mm
01:57 AM 49.5°F9.7°C 30.1°F-1.1°C 47% 5.0 mph NNW8.0 kmh NNW 27.0 mph43.5 kmh 29.84 in1010.5 mb 0.00 in0.0 mm 0.00 in0.0 mm 0.00 in0.0 mm
02:02 AM 49.3°F9.6°C 30.4°F-0.9°C 48% 6.0 mph WSW9.7 kmh WSW 19.0 mph30.6 kmh 29.84 in1010.5 mb 0.00 in0.0 mm 0.00 in0.0 mm 0.00 in0.0 mm
02:07 AM 49.2°F9.6°C 30.4°F-0.9°C 48% 6.0 mph NW9.7 kmh NW 19.0 mph30.6 kmh 29.84 in1010.5 mb 0.00 in0.0 mm 0.00 in0.0 mm 0.00 in0.0 mm
02:12 AM 49.1°F9.5°C 30.3°F-0.9°C 48% 5.0 mph W8.0 kmh W 15.0 mph24.1 kmh 29.84 in1010.5 mb 0.00 in0.0 mm 0.00 in0.0 mm 0.00 in0.0 mm
02:17 AM 49.1°F9.5°C 30.3°F-0.9°C 48% 7.0 mph NW11.3 kmh NW 18.0 mph29.0 kmh 29.85 in1010.8 mb 0.00 in0.0 mm 0.00 in0.0 mm 0.00 in0.0 mm
02:22 AM 49.2°F9.6°C 30.4°F-0.9°C 48% 12.0 mph NW19.3 kmh NW 18.0 mph29.0 kmh 29.84 in1010.5 mb 0.00 in0.0 mm 0.00 in0.0 mm 0.00 in0.0 mm
02:27 AM 49.1°F9.5°C 30.8°F-0.7°C 49% 6.0 mph NW9.7 kmh NW 20.0 mph32.2 kmh 29.85 in1010.8 mb 0.00 in0.0 mm 0.00 in0.0 mm 0.00 in0.0 mm
02:32 AM 49.1°F9.5°C 30.8°F-0.7°C 49% 11.0 mph NW17.7 kmh NW 20.0 mph32.2 kmh 29.85 in1010.8 mb 0.00 in0.0 mm 0.00 in0.0 mm 0.00 in0.0 mm
02:37 AM 49.1°F9.5°C 30.8°F-0.7°C 49% 2.0 mph NNW3.2 kmh NNW 20.0 mph32.2 kmh 29.86 in1011.2 mb 0.00 in0.0 mm 0.00 in0.0 mm 0.00 in0.0 mm
02:42 AM 49.1°F9.5°C 30.8°F-0.7°C 49% 8.0 mph NW12.9 kmh NW 21.0 mph33.8 kmh 29.86 in1011.2 mb 0.00 in0.0 mm 0.00 in0.0 mm 0.00 in0.0 mm
02:47 AM 49.0°F9.4°C 30.7°F-0.7°C 49% 10.0 mph W16.1 kmh W 21.0 mph33.8 kmh 29.86 in1011.2 mb 0.00 in0.0 mm 0.00 in0.0 mm 0.00 in0.0 mm
02:52 AM 49.0°F9.4°C 31.2°F-0.4°C 50% 5.0 mph WNW8.0 kmh WNW 21.0 mph33.8 kmh 29.86 in1011.2 mb 0.00 in0.0 mm 0.00 in0.0 mm 0.00 in0.0 mm
02:57 AM 48.8°F9.3°C 31.0°F-0.6°C 50% 9.0 mph NNW14.5 kmh NNW 21.0 mph33.8 kmh 29.86 in1011.2 mb 0.00 in0.0 mm 0.00 in0.0 mm 0.00 in0.0 mm
03:02 AM 48.7°F9.3°C 30.9°F-0.6°C 50% 7.0 mph NW11.3 kmh NW 14.0 mph22.5 kmh 29.86 in1011.2 mb 0.00 in0.0 mm 0.00 in0.0 mm 0.00 in0.0 mm
03:07 AM 48.7°F9.3°C 30.9°F-0.6°C 50% 11.0 mph NW17.7 kmh NW 15.0 mph24.1 kmh 29.86 in1011.2 mb 0.00 in0.0 mm 0.00 in0.0 mm 0.00 in0.0 mm
03:12 AM 48.5°F9.2°C 31.2°F-0.4°C 51% 4.0 mph N6.4 kmh N 15.0 mph24.1 kmh 29.86 in1011.2 mb 0.00 in0.0 mm 0.00 in0.0 mm 0.00 in0.0 mm
03:17 AM 48.5°F9.2°C 30.7°F-0.7°C 50% 10.0 mph W16.1 kmh W 16.0 mph25.7 kmh 29.87 in1011.5 mb 0.00 in0.0 mm 0.00 in0.0 mm 0.00 in0.0 mm
03:22 AM 48.4°F9.1°C 30.6°F-0.8°C 50% 8.0 mph NW12.9 kmh NW 23.0 mph37.0 kmh 29.86 in1011.2 mb 0.00 in0.0 mm 0.00 in0.0 mm 0.00 in0.0 mm
03:27 AM 48.3°F9.1°C 31.0°F-0.6°C 51% 2.0 mph NW3.2 kmh NW 23.0 mph37.0 kmh 29.86 in1011.2 mb 0.00 in0.0 mm 0.00 in0.0 mm 0.00 in0.0 mm
03:32 AM 48.1°F8.9°C 30.8°F-0.7°C 51% 7.0 mph NW11.3 kmh NW 23.0 mph37.0 kmh 29.87 in1011.5 mb 0.00 in0.0 mm 0.00 in0.0 mm 0.00 in0.0 mm
03:37 AM 47.9°F8.8°C 30.7°F-0.7°C 51% 10.0 mph N16.1 kmh N 23.0 mph37.0 kmh 29.86 in1011.2 mb 0.00 in0.0 mm 0.00 in0.0 mm 0.00 in0.0 mm
03:42 AM 47.8°F8.8°C 30.6°F-0.8°C 51% 8.0 mph WSW12.9 kmh WSW 19.0 mph30.6 kmh 29.86 in1011.2 mb 0.00 in0.0 mm 0.00 in0.0 mm 0.00 in0.0 mm
03:47 AM 47.7°F8.7°C 30.5°F-0.8°C 51% 9.0 mph WNW14.5 kmh WNW 19.0 mph30.6 kmh 29.87 in1011.5 mb 0.00 in0.0 mm 0.00 in0.0 mm 0.00 in0.0 mm
03:52 AM 47.6°F8.7°C 30.4°F-0.9°C 51% 5.0 mph NNE8.0 kmh NNE 19.0 mph30.6 kmh 29.87 in1011.5 mb 0.00 in0.0 mm 0.00 in0.0 mm 0.00 in0.0 mm
03:57 AM 47.6°F8.7°C 30.4°F-0.9°C 51% 10.0 mph NW16.1 kmh NW 22.0 mph35.4 kmh 29.87 in1011.5 mb 0.00 in0.0 mm 0.00 in0.0 mm 0.00 in0.0 mm
04:02 AM 47.5°F8.6°C 30.3°F-0.9°C 51% 18.0 mph NW29.0 kmh NW 23.0 mph37.0 kmh 29.87 in1011.5 mb 0.00 in0.0 mm 0.00 in0.0 mm 0.00 in0.0 mm
04:07 AM 47.5°F8.6°C 30.3°F-0.9°C 51% 13.0 mph NNW20.9 kmh NNW 24.0 mph38.6 kmh 29.87 in1011.5 mb 0.00 in0.0 mm 0.00 in0.0 mm 0.00 in0.0 mm
04:12 AM 47.3°F8.5°C 30.6°F-0.8°C 52% 9.0 mph WNW14.5 kmh WNW 24.0 mph38.6 kmh 29.88 in1011.9 mb 0.00 in0.0 mm 0.00 in0.0 mm 0.00 in0.0 mm
04:17 AM 47.1°F8.4°C 30.4°F-0.9°C 52% 4.0 mph NW6.4 kmh NW 24.0 mph38.6 kmh 29.88 in1011.9 mb 0.00 in0.0 mm 0.00 in0.0 mm 0.00 in0.0 mm
04:22 AM 47.0°F8.3°C 30.8°F-0.7°C 53% 8.0 mph N12.9 kmh N 24.0 mph38.6 kmh 29.88 in1011.9 mb 0.00 in0.0 mm 0.00 in0.0 mm 0.00 in0.0 mm
04:27 AM 46.9°F8.3°C 30.7°F-0.7°C 53% 15.0 mph NNW24.1 kmh NNW 23.0 mph37.0 kmh 29.89 in1012.2 mb 0.00 in0.0 mm 0.00 in0.0 mm 0.00 in0.0 mm
04:32 AM 46.7°F8.2°C 30.9°F-0.6°C 54% 6.0 mph NW9.7 kmh NW 23.0 mph37.0 kmh 29.88 in1011.9 mb 0.00 in0.0 mm 0.00 in0.0 mm 0.00 in0.0 mm
04:37 AM 46.7°F8.2°C 30.9°F-0.6°C 54% 10.0 mph NW16.1 kmh NW 23.0 mph37.0 kmh 29.87 in1011.5 mb 0.00 in0.0 mm 0.00 in0.0 mm 0.00 in0.0 mm
04:42 AM 46.5°F8.1°C 31.2°F-0.4°C 55% 4.0 mph 6.4 kmh 28.0 mph45.1 kmh 29.88 in1011.9 mb 0.00 in0.0 mm 0.00 in0.0 mm 0.00 in0.0 mm
04:47 AM 46.4°F8.0°C 31.1°F-0.5°C 55% 17.0 mph NW27.4 kmh NW 28.0 mph45.1 kmh 29.87 in1011.5 mb 0.00 in0.0 mm 0.00 in0.0 mm 0.00 in0.0 mm
04:52 AM 46.3°F7.9°C 31.5°F-0.3°C 56% 7.0 mph NW11.3 kmh NW 28.0 mph45.1 kmh 29.88 in1011.9 mb 0.00 in0.0 mm 0.00 in0.0 mm 0.00 in0.0 mm
04:57 AM 46.1°F7.8°C 31.3°F-0.4°C 56% 5.0 mph N8.0 kmh N 28.0 mph45.1 kmh 29.88 in1011.9 mb 0.00 in0.0 mm 0.00 in0.0 mm 0.00 in0.0 mm
05:02 AM 46.0°F7.8°C 31.6°F-0.2°C 57% 9.0 mph N14.5 kmh N 26.0 mph41.8 kmh 29.89 in1012.2 mb 0.00 in0.0 mm 0.00 in0.0 mm 0.00 in0.0 mm
05:07 AM 45.9°F7.7°C 31.5°F-0.3°C 57% 2.0 mph W3.2 kmh W 26.0 mph41.8 kmh 29.89 in1012.2 mb 0.00 in0.0 mm 0.00 in0.0 mm 0.00 in0.0 mm
05:12 AM 45.8°F7.7°C 31.4°F-0.3°C 57% 9.0 mph 14.5 kmh 17.0 mph27.4 kmh 29.90 in1012.5 mb 0.00 in0.0 mm 0.00 in0.0 mm 0.00 in0.0 mm
05:17 AM 45.7°F7.6°C 31.3°F-0.4°C 57% 8.0 mph WNW12.9 kmh WNW 17.0 mph27.4 kmh 29.91 in1012.9 mb 0.00 in0.0 mm 0.00 in0.0 mm 0.00 in0.0 mm
05:22 AM 45.6°F7.6°C 31.3°F-0.4°C 57% 4.0 mph NW6.4 kmh NW 17.0 mph27.4 kmh 29.91 in1012.9 mb 0.00 in0.0 mm 0.00 in0.0 mm 0.00 in0.0 mm
05:27 AM 45.5°F7.5°C 31.2°F-0.4°C 57% 1.0 mph NW1.6 kmh NW 17.0 mph27.4 kmh 29.92 in1013.2 mb 0.00 in0.0 mm 0.00 in0.0 mm 0.00 in0.0 mm
05:32 AM 45.4°F7.4°C 31.1°F-0.5°C 57% 5.0 mph NW8.0 kmh NW 17.0 mph27.4 kmh 29.92 in1013.2 mb 0.00 in0.0 mm 0.00 in0.0 mm 0.00 in0.0 mm
05:37 AM 45.3°F7.4°C 30.5°F-0.8°C 56% 4.0 mph NW6.4 kmh NW 17.0 mph27.4 kmh 29.92 in1013.2 mb 0.00 in0.0 mm 0.00 in0.0 mm 0.00 in0.0 mm
05:42 AM 45.2°F7.3°C 30.9°F-0.6°C 57% 7.0 mph N11.3 kmh N 23.0 mph37.0 kmh 29.93 in1013.5 mb 0.00 in0.0 mm 0.00 in0.0 mm 0.00 in0.0 mm
05:47 AM 45.1°F7.3°C 30.8°F-0.7°C 57% 4.0 mph NW6.4 kmh NW 23.0 mph37.0 kmh 29.93 in1013.5 mb 0.00 in0.0 mm 0.00 in0.0 mm 0.00 in0.0 mm
05:52 AM 45.0°F7.2°C 30.7°F-0.7°C 57% 9.0 mph NW14.5 kmh NW 23.0 mph37.0 kmh 29.93 in1013.5 mb 0.00 in0.0 mm 0.00 in0.0 mm 0.00 in0.0 mm
05:57 AM 44.9°F7.2°C 30.6°F-0.8°C 57% 12.0 mph NW19.3 kmh NW 23.0 mph37.0 kmh 29.94 in1013.9 mb 0.00 in0.0 mm 0.00 in0.0 mm 0.00 in0.0 mm
06:02 AM 44.7°F7.1°C 30.8°F-0.7°C 58% 8.0 mph N12.9 kmh N 23.0 mph37.0 kmh 29.94 in1013.9 mb 0.00 in0.0 mm 0.00 in0.0 mm 0.00 in0.0 mm
06:07 AM 44.6°F7.0°C 30.7°F-0.7°C 58% 6.0 mph N9.7 kmh N 23.0 mph37.0 kmh 29.94 in1013.9 mb 0.00 in0.0 mm 0.00 in0.0 mm 0.00 in0.0 mm
06:12 AM 44.5°F6.9°C 30.7°F-0.7°C 58% 4.0 mph W6.4 kmh W 17.0 mph27.4 kmh 29.95 in1014.2 mb 0.00 in0.0 mm 0.00 in0.0 mm 0.00 in0.0 mm
06:17 AM 44.3°F6.8°C 30.9°F-0.6°C 59% Calm Calm 17.0 mph27.4 kmh 29.95 in1014.2 mb 0.00 in0.0 mm 0.00 in0.0 mm 0.00 in0.0 mm
06:22 AM 44.2°F6.8°C 30.8°F-0.7°C 59% Calm Calm -- 29.96 in1014.6 mb 0.00 in0.0 mm 0.00 in0.0 mm 0.00 in0.0 mm
06:27 AM 44.1°F6.7°C 30.7°F-0.7°C 59% Calm Calm 6.0 mph9.7 kmh 29.97 in1014.9 mb 0.00 in0.0 mm 0.00 in0.0 mm 0.00 in0.0 mm
06:32 AM 44.0°F6.7°C 30.6°F-0.8°C 59% Calm Calm 5.0 mph8.0 kmh 29.98 in1015.2 mb 0.00 in0.0 mm 0.00 in0.0 mm 0.00 in0.0 mm
06:37 AM 44.1°F6.7°C 30.3°F-0.9°C 58% 2.0 mph NNW3.2 kmh NNW 10.0 mph16.1 kmh 29.98 in1015.2 mb 0.00 in0.0 mm 0.00 in0.0 mm 0.00 in0.0 mm
06:42 AM 44.2°F6.8°C 30.4°F-0.9°C 58% 8.0 mph NW12.9 kmh NW 11.0 mph17.7 kmh 29.98 in1015.2 mb 0.00 in0.0 mm 0.00 in0.0 mm 0.00 in0.0 mm
06:47 AM 44.1°F6.7°C 30.7°F-0.7°C 59% 9.0 mph NNW14.5 kmh NNW 14.0 mph22.5 kmh 29.98 in1015.2 mb 0.00 in0.0 mm 0.00 in0.0 mm 0.00 in0.0 mm
06:52 AM 44.2°F6.8°C 30.4°F-0.9°C 58% 4.0 mph NW6.4 kmh NW 14.0 mph22.5 kmh 29.98 in1015.2 mb 0.00 in0.0 mm 0.00 in0.0 mm 0.00 in0.0 mm
06:57 AM 44.1°F6.7°C 30.3°F-0.9°C 58% 11.0 mph NNW17.7 kmh NNW 15.0 mph24.1 kmh 29.97 in1014.9 mb 0.00 in0.0 mm 0.00 in0.0 mm 0.00 in0.0 mm
07:02 AM 43.8°F6.6°C 30.4°F-0.9°C 59% 2.0 mph NW3.2 kmh NW 15.0 mph24.1 kmh 29.97 in1014.9 mb 0.00 in0.0 mm 0.00 in0.0 mm 0.00 in0.0 mm
07:07 AM 43.7°F6.5°C 30.3°F-0.9°C 59% 6.0 mph NW9.7 kmh NW 15.0 mph24.1 kmh 29.97 in1014.9 mb 0.00 in0.0 mm 0.00 in0.0 mm 0.00 in0.0 mm
07:12 AM 43.7°F6.5°C 30.3°F-0.9°C 59% 2.0 mph NW3.2 kmh NW 15.0 mph24.1 kmh 29.96 in1014.6 mb 0.00 in0.0 mm 0.00 in0.0 mm 0.00 in0.0 mm
07:17 AM 43.6°F6.4°C 30.6°F-0.8°C 60% 4.0 mph NW6.4 kmh NW 17.0 mph27.4 kmh 29.96 in1014.6 mb 0.00 in0.0 mm 0.00 in0.0 mm 0.00 in0.0 mm
07:22 AM 43.6°F6.4°C 30.6°F-0.8°C 60% 6.0 mph NW9.7 kmh NW 17.0 mph27.4 kmh 29.97 in1014.9 mb 0.00 in0.0 mm 0.00 in0.0 mm 0.00 in0.0 mm
07:27 AM 43.5°F6.4°C 30.5°F-0.8°C 60% 4.0 mph NW6.4 kmh NW 17.0 mph27.4 kmh 29.97 in1014.9 mb 0.00 in0.0 mm 0.00 in0.0 mm 0.00 in0.0 mm
07:32 AM 43.5°F6.4°C 30.5°F-0.8°C 60% 2.0 mph SW3.2 kmh SW 17.0 mph27.4 kmh 29.97 in1014.9 mb 0.00 in0.0 mm 0.00 in0.0 mm 0.00 in0.0 mm
07:37 AM 43.6°F6.4°C 30.6°F-0.8°C 60% 8.0 mph NW12.9 kmh NW 10.0 mph16.1 kmh 29.98 in1015.2 mb 0.00 in0.0 mm 0.00 in0.0 mm 0.00 in0.0 mm
07:42 AM 43.6°F6.4°C 30.6°F-0.8°C 60% 4.0 mph WSW6.4 kmh WSW 10.0 mph16.1 kmh 29.99 in1015.6 mb 0.00 in0.0 mm 0.00 in0.0 mm 0.00 in0.0 mm
07:47 AM 43.7°F6.5°C 30.7°F-0.7°C 60% 5.0 mph NW8.0 kmh NW 10.0 mph16.1 kmh 29.98 in1015.2 mb 0.00 in0.0 mm 0.00 in0.0 mm 0.00 in0.0 mm
07:52 AM 43.7°F6.5°C 30.7°F-0.7°C 60% 1.0 mph W1.6 kmh W 10.0 mph16.1 kmh 29.98 in1015.2 mb 0.00 in0.0 mm 0.00 in0.0 mm 0.00 in0.0 mm
07:57 AM 43.9°F6.6°C 30.9°F-0.6°C 60% 6.0 mph NW9.7 kmh NW 17.0 mph27.4 kmh 29.98 in1015.2 mb 0.00 in0.0 mm 0.00 in0.0 mm 0.00 in0.0 mm
08:02 AM 44.1°F6.7°C 31.1°F-0.5°C 60% 6.0 mph NNW9.7 kmh NNW 18.0 mph29.0 kmh 29.99 in1015.6 mb 0.00 in0.0 mm 0.00 in0.0 mm 0.00 in0.0 mm
08:07 AM 44.2°F6.8°C 31.2°F-0.4°C 60% 2.0 mph NW3.2 kmh NW 21.0 mph33.8 kmh 29.99 in1015.6 mb 0.00 in0.0 mm 0.00 in0.0 mm 0.00 in0.0 mm
08:12 AM 44.4°F6.9°C 31.0°F-0.6°C 59% 5.0 mph NW8.0 kmh NW 21.0 mph33.8 kmh 29.98 in1015.2 mb 0.00 in0.0 mm 0.00 in0.0 mm 0.00 in0.0 mm
08:17 AM 44.5°F6.9°C 31.1°F-0.5°C 59% 6.0 mph NNW9.7 kmh NNW 21.0 mph33.8 kmh 29.98 in1015.2 mb 0.00 in0.0 mm 0.00 in0.0 mm 0.00 in0.0 mm
08:22 AM 44.5°F6.9°C 31.5°F-0.3°C 60% 4.0 mph N6.4 kmh N 21.0 mph33.8 kmh 29.99 in1015.6 mb 0.00 in0.0 mm 0.00 in0.0 mm 0.00 in0.0 mm
08:27 AM 44.5°F6.9°C 31.5°F-0.3°C 60% 1.0 mph NW1.6 kmh NW 18.0 mph29.0 kmh 30.00 in1015.9 mb 0.00 in0.0 mm 0.00 in0.0 mm 0.00 in0.0 mm
08:32 AM 44.6°F7.0°C 31.6°F-0.2°C 60% 4.0 mph 6.4 kmh 18.0 mph29.0 kmh 30.01 in1016.3 mb 0.00 in0.0 mm 0.00 in0.0 mm 0.00 in0.0 mm
08:37 AM 44.7°F7.1°C 31.7°F-0.2°C 60% 4.0 mph NW6.4 kmh NW 16.0 mph25.7 kmh 30.01 in1016.3 mb 0.00 in0.0 mm 0.00 in0.0 mm 0.00 in0.0 mm
08:42 AM 44.9°F7.2°C 31.9°F-0.1°C 60% 6.0 mph NNW9.7 kmh NNW 19.0 mph30.6 kmh 30.01 in1016.3 mb 0.00 in0.0 mm 0.00 in0.0 mm 0.00 in0.0 mm
08:47 AM 44.9°F7.2°C 31.5°F-0.3°C 59% 8.0 mph NW12.9 kmh NW 19.0 mph30.6 kmh 30.02 in1016.6 mb 0.00 in0.0 mm 0.00 in0.0 mm 0.00 in0.0 mm
08:52 AM 45.0°F7.2°C 31.5°F-0.3°C 59% 8.0 mph NW12.9 kmh NW 26.0 mph41.8 kmh 30.02 in1016.6 mb 0.00 in0.0 mm 0.00 in0.0 mm 0.00 in0.0 mm
08:57 AM 45.0°F7.2°C 31.5°F-0.3°C 59% 7.0 mph NW11.3 kmh NW 26.0 mph41.8 kmh 30.02 in1016.6 mb 0.00 in0.0 mm 0.00 in0.0 mm 0.00 in0.0 mm
09:02 AM 45.2°F7.3°C 31.7°F-0.2°C 59% 9.0 mph SW14.5 kmh SW 26.0 mph41.8 kmh 30.02 in1016.6 mb 0.00 in0.0 mm 0.00 in0.0 mm 0.00 in0.0 mm
09:07 AM 45.3°F7.4°C 31.8°F-0.1°C 59% 6.0 mph NNW9.7 kmh NNW 26.0 mph41.8 kmh 30.02 in1016.6 mb 0.00 in0.0 mm 0.00 in0.0 mm 0.00 in0.0 mm
09:12 AM 45.5°F7.5°C 32.0°F0.0°C 59% 4.0 mph NW6.4 kmh NW 18.0 mph29.0 kmh 30.02 in1016.6 mb 0.00 in0.0 mm 0.00 in0.0 mm 0.00 in0.0 mm
09:17 AM 45.6°F7.6°C 31.7°F-0.2°C 58% 13.0 mph NNW20.9 kmh NNW 18.0 mph29.0 kmh 30.02 in1016.6 mb 0.00 in0.0 mm 0.00 in0.0 mm 0.00 in0.0 mm
09:22 AM 45.6°F7.6°C 31.7°F-0.2°C 58% 7.0 mph NW11.3 kmh NW 18.0 mph29.0 kmh 30.02 in1016.6 mb 0.00 in0.0 mm 0.00 in0.0 mm 0.00 in0.0 mm
09:27 AM 45.5°F7.5°C 31.6°F-0.2°C 58% 8.0 mph WNW12.9 kmh WNW 18.0 mph29.0 kmh 30.03 in1016.9 mb 0.00 in0.0 mm 0.00 in0.0 mm 0.00 in0.0 mm
09:32 AM 45.2°F7.3°C 31.3°F-0.4°C 58% 20.0 mph NNE32.2 kmh NNE 20.0 mph32.2 kmh 30.03 in1016.9 mb 0.00 in0.0 mm 0.00 in0.0 mm 0.00 in0.0 mm
09:37 AM 45.0°F7.2°C 31.1°F-0.5°C 58% 1.0 mph N1.6 kmh N 23.0 mph37.0 kmh 30.04 in1017.3 mb 0.00 in0.0 mm 0.00 in0.0 mm 0.00 in0.0 mm
09:42 AM 45.0°F7.2°C 31.1°F-0.5°C 58% 5.0 mph W8.0 kmh W 23.0 mph37.0 kmh 30.04 in1017.3 mb 0.00 in0.0 mm 0.00 in0.0 mm 0.00 in0.0 mm
09:47 AM 45.0°F7.2°C 31.1°F-0.5°C 58% 2.0 mph NW3.2 kmh NW 23.0 mph37.0 kmh 30.04 in1017.3 mb 0.00 in0.0 mm 0.00 in0.0 mm 0.00 in0.0 mm
09:52 AM 45.0°F7.2°C 31.1°F-0.5°C 58% 9.0 mph WSW14.5 kmh WSW 23.0 mph37.0 kmh 30.04 in1017.3 mb 0.00 in0.0 mm 0.00 in0.0 mm 0.00 in0.0 mm
09:57 AM 45.0°F7.2°C 31.1°F-0.5°C 58% 8.0 mph NNW12.9 kmh NNW 20.0 mph32.2 kmh 30.04 in1017.3 mb 0.00 in0.0 mm 0.00 in0.0 mm 0.00 in0.0 mm
10:02 AM 45.2°F7.3°C 31.3°F-0.4°C 58% 8.0 mph NW12.9 kmh NW 20.0 mph32.2 kmh 30.05 in1017.6 mb 0.00 in0.0 mm 0.00 in0.0 mm 0.00 in0.0 mm
10:07 AM 45.3°F7.4°C 31.4°F-0.3°C 58% 5.0 mph WNW8.0 kmh WNW 18.0 mph29.0 kmh 30.05 in1017.6 mb 0.00 in0.0 mm 0.00 in0.0 mm 0.00 in0.0 mm
10:12 AM 45.4°F7.4°C 31.5°F-0.3°C 58% 5.0 mph NW8.0 kmh NW 18.0 mph29.0 kmh 30.05 in1017.6 mb 0.00 in0.0 mm 0.00 in0.0 mm 0.00 in0.0 mm
10:17 AM 45.6°F7.6°C 31.3°F-0.4°C 57% 6.0 mph WNW9.7 kmh WNW 18.0 mph29.0 kmh 30.05 in1017.6 mb 0.00 in0.0 mm 0.00 in0.0 mm 0.00 in0.0 mm
10:22 AM 45.6°F7.6°C 31.3°F-0.4°C 57% 4.0 mph NW6.4 kmh NW 18.0 mph29.0 kmh 30.05 in1017.6 mb 0.00 in0.0 mm 0.00 in0.0 mm 0.00 in0.0 mm
10:27 AM 45.7°F7.6°C 31.8°F-0.1°C 58% 3.0 mph NW4.8 kmh NW 17.0 mph27.4 kmh 30.05 in1017.6 mb 0.00 in0.0 mm 0.00 in0.0 mm 0.00 in0.0 mm
10:32 AM 46.0°F7.8°C 31.6°F-0.2°C 57% 7.0 mph NNW11.3 kmh NNW 18.0 mph29.0 kmh 30.05 in1017.6 mb 0.00 in0.0 mm 0.00 in0.0 mm 0.00 in0.0 mm
10:37 AM 45.7°F7.6°C 31.3°F-0.4°C 57% 1.0 mph NNW1.6 kmh NNW 22.0 mph35.4 kmh 30.04 in1017.3 mb 0.00 in0.0 mm 0.00 in0.0 mm 0.00 in0.0 mm
10:42 AM 45.9°F7.7°C 31.5°F-0.3°C 57% 2.0 mph WNW3.2 kmh WNW 22.0 mph35.4 kmh 30.04 in1017.3 mb 0.00 in0.0 mm 0.00 in0.0 mm 0.00 in0.0 mm
10:47 AM 46.0°F7.8°C 31.2°F-0.4°C 56% 6.0 mph WNW9.7 kmh WNW 22.0 mph35.4 kmh 30.04 in1017.3 mb 0.00 in0.0 mm 0.00 in0.0 mm 0.00 in0.0 mm
10:52 AM 45.7°F7.6°C 30.9°F-0.6°C 56% 6.0 mph N9.7 kmh N 22.0 mph35.4 kmh 30.05 in1017.6 mb 0.00 in0.0 mm 0.00 in0.0 mm 0.00 in0.0 mm
10:57 AM 46.0°F7.8°C 31.2°F-0.4°C 56% 8.0 mph NW12.9 kmh NW 20.0 mph32.2 kmh 30.05 in1017.6 mb 0.00 in0.0 mm 0.00 in0.0 mm 0.00 in0.0 mm
11:02 AM 46.2°F7.9°C 31.4°F-0.3°C 56% 10.0 mph NW16.1 kmh NW 22.0 mph35.4 kmh 30.06 in1017.9 mb 0.00 in0.0 mm 0.00 in0.0 mm 0.00 in0.0 mm
11:07 AM 46.3°F7.9°C 31.0°F-0.6°C 55% 6.0 mph NNW9.7 kmh NNW 22.0 mph35.4 kmh 30.06 in1017.9 mb 0.00 in0.0 mm 0.00 in0.0 mm 0.00 in0.0 mm
11:12 AM 46.5°F8.1°C 31.7°F-0.2°C 56% 5.0 mph 8.0 kmh 22.0 mph35.4 kmh 30.06 in1017.9 mb 0.00 in0.0 mm 0.00 in0.0 mm 0.00 in0.0 mm
11:17 AM 46.3°F7.9°C 31.5°F-0.3°C 56% 8.0 mph NW12.9 kmh NW 22.0 mph35.4 kmh 30.06 in1017.9 mb 0.00 in0.0 mm 0.00 in0.0 mm 0.00 in0.0 mm
11:22 AM 46.1°F7.8°C 31.3°F-0.4°C 56% 3.0 mph SW4.8 kmh SW 22.0 mph35.4 kmh 30.06 in1017.9 mb 0.00 in0.0 mm 0.00 in0.0 mm 0.00 in0.0 mm
11:27 AM 46.1°F7.8°C 31.3°F-0.4°C 56% 7.0 mph NW11.3 kmh NW 22.0 mph35.4 kmh 30.06 in1017.9 mb 0.00 in0.0 mm 0.00 in0.0 mm 0.00 in0.0 mm
11:32 AM 46.1°F7.8°C 31.3°F-0.4°C 56% 2.0 mph NW3.2 kmh NW 19.0 mph30.6 kmh 30.06 in1017.9 mb 0.00 in0.0 mm 0.00 in0.0 mm 0.00 in0.0 mm
11:37 AM 46.0°F7.8°C 31.2°F-0.4°C 56% 11.0 mph NW17.7 kmh NW 21.0 mph33.8 kmh 30.07 in1018.3 mb 0.00 in0.0 mm 0.00 in0.0 mm 0.00 in0.0 mm
11:42 AM 45.9°F7.7°C 31.5°F-0.3°C 57% 4.0 mph NNW6.4 kmh NNW 21.0 mph33.8 kmh 30.06 in1017.9 mb 0.00 in0.0 mm 0.00 in0.0 mm 0.00 in0.0 mm
11:47 AM 45.9°F7.7°C 31.5°F-0.3°C 57% 4.0 mph NW6.4 kmh NW 24.0 mph38.6 kmh 30.06 in1017.9 mb 0.00 in0.0 mm 0.00 in0.0 mm 0.00 in0.0 mm
11:52 AM 46.0°F7.8°C 31.6°F-0.2°C 57% 10.0 mph NW16.1 kmh NW 25.0 mph40.2 kmh 30.06 in1017.9 mb 0.00 in0.0 mm 0.00 in0.0 mm 0.00 in0.0 mm
11:57 AM 46.6°F8.1°C 31.8°F-0.1°C 56% 1.0 mph NNW1.6 kmh NNW 25.0 mph40.2 kmh 30.06 in1017.9 mb 0.00 in0.0 mm 0.00 in0.0 mm 0.00 in0.0 mm
12:02 PM 47.1°F8.4°C 31.8°F-0.1°C 55% 5.0 mph NW8.0 kmh NW 25.0 mph40.2 kmh 30.06 in1017.9 mb 0.00 in0.0 mm 0.00 in0.0 mm 0.00 in0.0 mm
12:07 PM 46.7°F8.2°C 31.4°F-0.3°C 55% 7.0 mph NW11.3 kmh NW 25.0 mph40.2 kmh 30.06 in1017.9 mb 0.00 in0.0 mm 0.00 in0.0 mm 0.00 in0.0 mm
12:12 PM 46.4°F8.0°C 31.6°F-0.2°C 56% 3.0 mph NW4.8 kmh NW 23.0 mph37.0 kmh 30.06 in1017.9 mb 0.00 in0.0 mm 0.00 in0.0 mm 0.00 in0.0 mm
12:17 PM 46.3°F7.9°C 31.9°F-0.1°C 57% 11.0 mph NW17.7 kmh NW 23.0 mph37.0 kmh 30.06 in1017.9 mb 0.00 in0.0 mm 0.00 in0.0 mm 0.00 in0.0 mm
12:22 PM 46.4°F8.0°C 31.6°F-0.2°C 56% 12.0 mph NNW19.3 kmh NNW 20.0 mph32.2 kmh 30.06 in1017.9 mb 0.00 in0.0 mm 0.00 in0.0 mm 0.00 in0.0 mm
12:27 PM 46.9°F8.3°C 32.0°F0.0°C 56% 10.0 mph NW16.1 kmh NW 20.0 mph32.2 kmh 30.06 in1017.9 mb 0.00 in0.0 mm 0.00 in0.0 mm 0.00 in0.0 mm
12:32 PM 46.6°F8.1°C 31.8°F-0.1°C 56% 6.0 mph WNW9.7 kmh WNW 17.0 mph27.4 kmh 30.07 in1018.3 mb 0.00 in0.0 mm 0.00 in0.0 mm 0.00 in0.0 mm
12:37 PM 46.5°F8.1°C 31.7°F-0.2°C 56% 7.0 mph WNW11.3 kmh WNW 25.0 mph40.2 kmh 30.07 in1018.3 mb 0.00 in0.0 mm 0.00 in0.0 mm 0.00 in0.0 mm
12:42 PM 46.5°F8.1°C 31.7°F-0.2°C 56% 9.0 mph NW14.5 kmh NW 25.0 mph40.2 kmh 30.07 in1018.3 mb 0.00 in0.0 mm 0.00 in0.0 mm 0.00 in0.0 mm
12:47 PM 46.4°F8.0°C 31.6°F-0.2°C 56% 6.0 mph NNW9.7 kmh NNW 25.0 mph40.2 kmh 30.07 in1018.3 mb 0.00 in0.0 mm 0.00 in0.0 mm 0.00 in0.0 mm
12:52 PM 46.4°F8.0°C 32.0°F0.0°C 57% 10.0 mph NNW16.1 kmh NNW 25.0 mph40.2 kmh 30.08 in1018.6 mb 0.00 in0.0 mm 0.00 in0.0 mm 0.00 in0.0 mm
12:57 PM 46.0°F7.8°C 31.6°F-0.2°C 57% 13.0 mph NW20.9 kmh NW 19.0 mph30.6 kmh 30.08 in1018.6 mb 0.00 in0.0 mm 0.00 in0.0 mm 0.00 in0.0 mm
01:02 PM 46.0°F7.8°C 31.6°F-0.2°C 57% 6.0 mph NW9.7 kmh NW 19.0 mph30.6 kmh 30.08 in1018.6 mb 0.00 in0.0 mm 0.00 in0.0 mm 0.00 in0.0 mm
01:07 PM 45.9°F7.7°C 32.0°F0.0°C 58% 4.0 mph WNW6.4 kmh WNW 18.0 mph29.0 kmh 30.08 in1018.6 mb 0.00 in0.0 mm 0.00 in0.0 mm 0.00 in0.0 mm
01:12 PM 45.7°F7.6°C 31.8°F-0.1°C 58% 9.0 mph NW14.5 kmh NW 19.0 mph30.6 kmh 30.08 in1018.6 mb 0.00 in0.0 mm 0.00 in0.0 mm 0.00 in0.0 mm
01:17 PM 45.5°F7.5°C 31.6°F-0.2°C 58% 12.0 mph NW19.3 kmh NW 19.0 mph30.6 kmh 30.08 in1018.6 mb 0.00 in0.0 mm 0.00 in0.0 mm 0.00 in0.0 mm
01:22 PM 45.6°F7.6°C 31.7°F-0.2°C 58% 8.0 mph NW12.9 kmh NW 19.0 mph30.6 kmh 30.08 in1018.6 mb 0.00 in0.0 mm 0.00 in0.0 mm 0.00 in0.0 mm
01:27 PM 45.6°F7.6°C 31.7°F-0.2°C 58% 8.0 mph NW12.9 kmh NW 19.0 mph30.6 kmh 30.08 in1018.6 mb 0.00 in0.0 mm 0.00 in0.0 mm 0.00 in0.0 mm
01:32 PM 45.6°F7.6°C 31.7°F-0.2°C 58% 3.0 mph NW4.8 kmh NW 19.0 mph30.6 kmh 30.08 in1018.6 mb 0.00 in0.0 mm 0.00 in0.0 mm 0.00 in0.0 mm
01:37 PM 45.5°F7.5°C 31.6°F-0.2°C 58% 10.0 mph 16.1 kmh 19.0 mph30.6 kmh 30.09 in1019.0 mb 0.00 in0.0 mm 0.00 in0.0 mm 0.00 in0.0 mm
01:42 PM 45.5°F7.5°C 32.0°F0.0°C 59% 9.0 mph 14.5 kmh 19.0 mph30.6 kmh 30.08 in1018.6 mb 0.00 in0.0 mm 0.00 in0.0 mm 0.00 in0.0 mm
01:47 PM 45.3°F7.4°C 31.8°F-0.1°C 59% 5.0 mph N8.0 kmh N 19.0 mph30.6 kmh 30.09 in1019.0 mb 0.00 in0.0 mm 0.00 in0.0 mm 0.00 in0.0 mm
01:52 PM 45.4°F7.4°C 31.9°F-0.1°C 59% 6.0 mph WNW9.7 kmh WNW 18.0 mph29.0 kmh 30.09 in1019.0 mb 0.00 in0.0 mm 0.00 in0.0 mm 0.00 in0.0 mm
01:57 PM 45.2°F7.3°C 31.3°F-0.4°C 58% 2.0 mph NW3.2 kmh NW 18.0 mph29.0 kmh 30.09 in1019.0 mb 0.00 in0.0 mm 0.00 in0.0 mm 0.00 in0.0 mm
02:02 PM 45.2°F7.3°C 31.7°F-0.2°C 59% 6.0 mph WNW9.7 kmh WNW 18.0 mph29.0 kmh 30.09 in1019.0 mb 0.00 in0.0 mm 0.00 in0.0 mm 0.00 in0.0 mm
02:07 PM 45.1°F7.3°C 31.6°F-0.2°C 59% 4.0 mph NNW6.4 kmh NNW 18.0 mph29.0 kmh 30.09 in1019.0 mb 0.00 in0.0 mm 0.00 in0.0 mm 0.00 in0.0 mm
02:12 PM 45.1°F7.3°C 31.6°F-0.2°C 59% 3.0 mph NW4.8 kmh NW 16.0 mph25.7 kmh 30.09 in1019.0 mb 0.00 in0.0 mm 0.00 in0.0 mm 0.00 in0.0 mm
02:17 PM 45.3°F7.4°C 31.8°F-0.1°C 59% 16.0 mph NNW25.7 kmh NNW 21.0 mph33.8 kmh 30.10 in1019.3 mb 0.00 in0.0 mm 0.00 in0.0 mm 0.00 in0.0 mm
02:22 PM 45.1°F7.3°C 31.6°F-0.2°C 59% 2.0 mph NW3.2 kmh NW 21.0 mph33.8 kmh 30.09 in1019.0 mb 0.00 in0.0 mm 0.00 in0.0 mm 0.00 in0.0 mm
02:27 PM 45.2°F7.3°C 31.7°F-0.2°C 59% 7.0 mph NW11.3 kmh NW 21.0 mph33.8 kmh 30.09 in1019.0 mb 0.00 in0.0 mm 0.00 in0.0 mm 0.00 in0.0 mm
02:32 PM 45.3°F7.4°C 31.8°F-0.1°C 59% 4.0 mph NW6.4 kmh NW 21.0 mph33.8 kmh 30.10 in1019.3 mb 0.00 in0.0 mm 0.00 in0.0 mm 0.00 in0.0 mm
02:37 PM 45.3°F7.4°C 31.4°F-0.3°C 58% 6.0 mph NW9.7 kmh NW 20.0 mph32.2 kmh 30.10 in1019.3 mb 0.00 in0.0 mm 0.00 in0.0 mm 0.00 in0.0 mm
02:42 PM 45.4°F7.4°C 31.9°F-0.1°C 59% 8.0 mph NW12.9 kmh NW 20.0 mph32.2 kmh 30.11 in1019.6 mb 0.00 in0.0 mm 0.00 in0.0 mm 0.00 in0.0 mm
02:47 PM 45.4°F7.4°C 31.5°F-0.3°C 58% 16.0 mph NW25.7 kmh NW 19.0 mph30.6 kmh 30.11 in1019.6 mb 0.00 in0.0 mm 0.00 in0.0 mm 0.00 in0.0 mm
02:52 PM 45.4°F7.4°C 31.5°F-0.3°C 58% 11.0 mph NW17.7 kmh NW 19.0 mph30.6 kmh 30.11 in1019.6 mb 0.00 in0.0 mm 0.00 in0.0 mm 0.00 in0.0 mm
02:57 PM 45.4°F7.4°C 31.9°F-0.1°C 59% 7.0 mph W11.3 kmh W 16.0 mph25.7 kmh 30.10 in1019.3 mb 0.00 in0.0 mm 0.00 in0.0 mm 0.00 in0.0 mm
03:02 PM 45.5°F7.5°C 32.0°F0.0°C 59% 1.0 mph W1.6 kmh W 16.0 mph25.7 kmh 30.11 in1019.6 mb 0.00 in0.0 mm 0.00 in0.0 mm 0.00 in0.0 mm
03:07 PM 45.6°F7.6°C 31.7°F-0.2°C 58% 3.0 mph NW4.8 kmh NW 16.0 mph25.7 kmh 30.10 in1019.3 mb 0.00 in0.0 mm 0.00 in0.0 mm 0.00 in0.0 mm
03:12 PM 45.6°F7.6°C 31.7°F-0.2°C 58% 5.0 mph NW8.0 kmh NW 16.0 mph25.7 kmh 30.11 in1019.6 mb 0.00 in0.0 mm 0.00 in0.0 mm 0.00 in0.0 mm
03:17 PM 45.5°F7.5°C 32.0°F0.0°C 59% 9.0 mph NW14.5 kmh NW 20.0 mph32.2 kmh 30.11 in1019.6 mb 0.00 in0.0 mm 0.00 in0.0 mm 0.00 in0.0 mm
03:22 PM 45.6°F7.6°C 32.1°F0.1°C 59% 10.0 mph N16.1 kmh N 20.0 mph32.2 kmh 30.11 in1019.6 mb 0.00 in0.0 mm 0.00 in0.0 mm 0.00 in0.0 mm
03:27 PM 45.6°F7.6°C 32.1°F0.1°C 59% 3.0 mph NW4.8 kmh NW 20.0 mph32.2 kmh 30.11 in1019.6 mb 0.00 in0.0 mm 0.00 in0.0 mm 0.00 in0.0 mm
03:32 PM 45.6°F7.6°C 32.1°F0.1°C 59% 7.0 mph N11.3 kmh N 20.0 mph32.2 kmh 30.12 in1020.0 mb 0.00 in0.0 mm 0.00 in0.0 mm 0.00 in0.0 mm
03:37 PM 45.6°F7.6°C 32.1°F0.1°C 59% 7.0 mph NW11.3 kmh NW 15.0 mph24.1 kmh 30.12 in1020.0 mb 0.00 in0.0 mm 0.00 in0.0 mm 0.00 in0.0 mm
03:42 PM 45.6°F7.6°C 32.1°F0.1°C 59% 4.0 mph NW6.4 kmh NW 15.0 mph24.1 kmh 30.13 in1020.3 mb 0.00 in0.0 mm 0.00 in0.0 mm 0.00 in0.0 mm
03:47 PM 45.6°F7.6°C 32.1°F0.1°C 59% 6.0 mph N9.7 kmh N 14.0 mph22.5 kmh 30.13 in1020.3 mb 0.00 in0.0 mm 0.00 in0.0 mm 0.00 in0.0 mm
03:52 PM 45.6°F7.6°C 32.1°F0.1°C 59% 4.0 mph NW6.4 kmh NW 14.0 mph22.5 kmh 30.13 in1020.3 mb 0.00 in0.0 mm 0.00 in0.0 mm 0.00 in0.0 mm
03:57 PM 45.7°F7.6°C 32.6°F0.3°C 60% 8.0 mph NNW12.9 kmh NNW 12.0 mph19.3 kmh 30.13 in1020.3 mb 0.00 in0.0 mm 0.00 in0.0 mm 0.00 in0.0 mm
04:02 PM 45.6°F7.6°C 32.1°F0.1°C 59% 10.0 mph NW16.1 kmh NW 16.0 mph25.7 kmh 30.14 in1020.7 mb 0.00 in0.0 mm 0.00 in0.0 mm 0.00 in0.0 mm
04:07 PM 45.6°F7.6°C 32.1°F0.1°C 59% 5.0 mph NNW8.0 kmh NNW 18.0 mph29.0 kmh 30.14 in1020.7 mb 0.00 in0.0 mm 0.00 in0.0 mm 0.00 in0.0 mm
04:12 PM 45.5°F7.5°C 32.4°F0.2°C 60% 3.0 mph NW4.8 kmh NW 18.0 mph29.0 kmh 30.14 in1020.7 mb 0.00 in0.0 mm 0.00 in0.0 mm 0.00 in0.0 mm
04:17 PM 45.4°F7.4°C 31.9°F-0.1°C 59% 3.0 mph NW4.8 kmh NW 18.0 mph29.0 kmh 30.14 in1020.7 mb 0.00 in0.0 mm 0.00 in0.0 mm 0.00 in0.0 mm
04:22 PM 45.3°F7.4°C 32.2°F0.1°C 60% 3.0 mph NNW4.8 kmh NNW 18.0 mph29.0 kmh 30.14 in1020.7 mb 0.00 in0.0 mm 0.00 in0.0 mm 0.00 in0.0 mm
04:27 PM 45.3°F7.4°C 32.2°F0.1°C 60% 2.0 mph NW3.2 kmh NW 13.0 mph20.9 kmh 30.14 in1020.7 mb 0.00 in0.0 mm 0.00 in0.0 mm 0.00 in0.0 mm
04:32 PM 45.2°F7.3°C 32.1°F0.1°C 60% 3.0 mph SSW4.8 kmh SSW 13.0 mph20.9 kmh 30.14 in1020.7 mb 0.00 in0.0 mm 0.00 in0.0 mm 0.00 in0.0 mm
04:37 PM 45.2°F7.3°C 32.1°F0.1°C 60% 7.0 mph NW11.3 kmh NW 17.0 mph27.4 kmh 30.14 in1020.7 mb 0.00 in0.0 mm 0.00 in0.0 mm 0.00 in0.0 mm
04:42 PM 45.1°F7.3°C 32.1°F0.1°C 60% 7.0 mph NW11.3 kmh NW 19.0 mph30.6 kmh 30.14 in1020.7 mb 0.00 in0.0 mm 0.00 in0.0 mm 0.00 in0.0 mm
04:47 PM 45.0°F7.2°C 32.0°F0.0°C 60% 19.0 mph NNE30.6 kmh NNE 19.0 mph30.6 kmh 30.14 in1020.7 mb 0.00 in0.0 mm 0.00 in0.0 mm 0.00 in0.0 mm
04:52 PM 44.9°F7.2°C 31.9°F-0.1°C 60% 8.0 mph WNW12.9 kmh WNW 19.0 mph30.6 kmh 30.14 in1020.7 mb 0.00 in0.0 mm 0.00 in0.0 mm 0.00 in0.0 mm
04:57 PM 44.9°F7.2°C 31.9°F-0.1°C 60% 3.0 mph NNW4.8 kmh NNW 19.0 mph30.6 kmh 30.14 in1020.7 mb 0.00 in0.0 mm 0.00 in0.0 mm 0.00 in0.0 mm
05:02 PM 44.7°F7.1°C 31.7°F-0.2°C 60% 7.0 mph NW11.3 kmh NW 15.0 mph24.1 kmh 30.14 in1020.7 mb 0.00 in0.0 mm 0.00 in0.0 mm 0.00 in0.0 mm
05:07 PM 44.8°F7.1°C 31.8°F-0.1°C 60% 7.0 mph N11.3 kmh N 16.0 mph25.7 kmh 30.15 in1021.0 mb 0.00 in0.0 mm 0.00 in0.0 mm 0.00 in0.0 mm
05:12 PM 44.7°F7.1°C 31.7°F-0.2°C 60% 3.0 mph N4.8 kmh N 16.0 mph25.7 kmh 30.15 in1021.0 mb 0.00 in0.0 mm 0.00 in0.0 mm 0.00 in0.0 mm
05:17 PM 44.6°F7.0°C 32.0°F0.0°C 61% 7.0 mph NW11.3 kmh NW 16.0 mph25.7 kmh 30.15 in1021.0 mb 0.00 in0.0 mm 0.00 in0.0 mm 0.00 in0.0 mm
05:22 PM 44.5°F6.9°C 31.9°F-0.1°C 61% 5.0 mph NW8.0 kmh NW 16.0 mph25.7 kmh 30.16 in1021.3 mb 0.00 in0.0 mm 0.00 in0.0 mm 0.00 in0.0 mm
05:27 PM 44.5°F6.9°C 31.9°F-0.1°C 61% 6.0 mph NW9.7 kmh NW 19.0 mph30.6 kmh 30.16 in1021.3 mb 0.00 in0.0 mm 0.00 in0.0 mm 0.00 in0.0 mm
05:32 PM 44.4°F6.9°C 31.8°F-0.1°C 61% 3.0 mph NW4.8 kmh NW 19.0 mph30.6 kmh 30.16 in1021.3 mb 0.00 in0.0 mm 0.00 in0.0 mm 0.00 in0.0 mm
05:37 PM 44.3°F6.8°C 31.7°F-0.2°C 61% 11.0 mph N17.7 kmh N 19.0 mph30.6 kmh 30.16 in1021.3 mb 0.00 in0.0 mm 0.00 in0.0 mm 0.00 in0.0 mm
05:42 PM 44.3°F6.8°C 31.7°F-0.2°C 61% 11.0 mph NW17.7 kmh NW 19.0 mph30.6 kmh 30.16 in1021.3 mb 0.00 in0.0 mm 0.00 in0.0 mm 0.00 in0.0 mm
05:47 PM 44.2°F6.8°C 31.6°F-0.2°C 61% 6.0 mph NNW9.7 kmh NNW 19.0 mph30.6 kmh 30.16 in1021.3 mb 0.00 in0.0 mm 0.00 in0.0 mm 0.00 in0.0 mm
05:52 PM 44.2°F6.8°C 31.6°F-0.2°C 61% 10.0 mph NW16.1 kmh NW 19.0 mph30.6 kmh 30.17 in1021.7 mb 0.00 in0.0 mm 0.00 in0.0 mm 0.00 in0.0 mm
05:57 PM 44.2°F6.8°C 31.6°F-0.2°C 61% 9.0 mph NNW14.5 kmh NNW 19.0 mph30.6 kmh 30.18 in1022.0 mb 0.00 in0.0 mm 0.00 in0.0 mm 0.00 in0.0 mm
06:02 PM 44.2°F6.8°C 31.6°F-0.2°C 61% 6.0 mph W9.7 kmh W 19.0 mph30.6 kmh 30.18 in1022.0 mb 0.00 in0.0 mm 0.00 in0.0 mm 0.00 in0.0 mm
06:07 PM 44.1°F6.7°C 31.5°F-0.3°C 61% 7.0 mph NNW11.3 kmh NNW 16.0 mph25.7 kmh 30.18 in1022.0 mb 0.00 in0.0 mm 0.00 in0.0 mm 0.00 in0.0 mm
06:12 PM 44.1°F6.7°C 31.5°F-0.3°C 61% 12.0 mph NNW19.3 kmh NNW 16.0 mph25.7 kmh 30.18 in1022.0 mb 0.00 in0.0 mm 0.00 in0.0 mm 0.00 in0.0 mm
06:17 PM 44.0°F6.7°C 31.8°F-0.1°C 62% 5.0 mph WNW8.0 kmh WNW 16.0 mph25.7 kmh 30.19 in1022.4 mb 0.00 in0.0 mm 0.00 in0.0 mm 0.00 in0.0 mm
06:22 PM 43.9°F6.6°C 31.7°F-0.2°C 62% 1.0 mph NW1.6 kmh NW 16.0 mph25.7 kmh 30.19 in1022.4 mb 0.00 in0.0 mm 0.00 in0.0 mm 0.00 in0.0 mm
06:27 PM 43.9°F6.6°C 31.7°F-0.2°C 62% 5.0 mph NNW8.0 kmh NNW 17.0 mph27.4 kmh 30.20 in1022.7 mb 0.00 in0.0 mm 0.00 in0.0 mm 0.00 in0.0 mm
06:32 PM 43.8°F6.6°C 31.6°F-0.2°C 62% 7.0 mph NW11.3 kmh NW 17.0 mph27.4 kmh 30.20 in1022.7 mb 0.00 in0.0 mm 0.00 in0.0 mm 0.00 in0.0 mm
06:37 PM 43.8°F6.6°C 31.6°F-0.2°C 62% 8.0 mph NNW12.9 kmh NNW 17.0 mph27.4 kmh 30.20 in1022.7 mb 0.00 in0.0 mm 0.00 in0.0 mm 0.00 in0.0 mm
06:42 PM 43.7°F6.5°C 31.9°F-0.1°C 63% 9.0 mph NNW14.5 kmh NNW 17.0 mph27.4 kmh 30.20 in1022.7 mb 0.00 in0.0 mm 0.00 in0.0 mm 0.00 in0.0 mm
06:47 PM 43.6°F6.4°C 31.8°F-0.1°C 63% 8.0 mph N12.9 kmh N 16.0 mph25.7 kmh 30.20 in1022.7 mb 0.00 in0.0 mm 0.00 in0.0 mm 0.00 in0.0 mm
06:52 PM 43.7°F6.5°C 31.9°F-0.1°C 63% 8.0 mph NW12.9 kmh NW 18.0 mph29.0 kmh 30.21 in1023.0 mb 0.00 in0.0 mm 0.00 in0.0 mm 0.00 in0.0 mm
06:57 PM 43.7°F6.5°C 31.9°F-0.1°C 63% 6.0 mph NW9.7 kmh NW 18.0 mph29.0 kmh 30.21 in1023.0 mb 0.00 in0.0 mm 0.00 in0.0 mm 0.00 in0.0 mm
07:02 PM 43.6°F6.4°C 31.8°F-0.1°C 63% 9.0 mph NW14.5 kmh NW 18.0 mph29.0 kmh 30.21 in1023.0 mb 0.00 in0.0 mm 0.00 in0.0 mm 0.00 in0.0 mm
07:07 PM 43.5°F6.4°C 31.8°F-0.1°C 63% 4.0 mph NW6.4 kmh NW 18.0 mph29.0 kmh 30.21 in1023.0 mb 0.00 in0.0 mm 0.00 in0.0 mm 0.00 in0.0 mm
07:12 PM 43.4°F6.3°C 31.7°F-0.2°C 63% 8.0 mph N12.9 kmh N 15.0 mph24.1 kmh 30.22 in1023.4 mb 0.00 in0.0 mm 0.00 in0.0 mm 0.00 in0.0 mm
07:17 PM 43.4°F6.3°C 31.7°F-0.2°C 63% 6.0 mph NW9.7 kmh NW 18.0 mph29.0 kmh 30.22 in1023.4 mb 0.00 in0.0 mm 0.00 in0.0 mm 0.00 in0.0 mm
07:22 PM 43.4°F6.3°C 31.7°F-0.2°C 63% 5.0 mph NW8.0 kmh NW 18.0 mph29.0 kmh 30.22 in1023.4 mb 0.00 in0.0 mm 0.00 in0.0 mm 0.00 in0.0 mm
07:27 PM 43.3°F6.3°C 31.6°F-0.2°C 63% 7.0 mph NW11.3 kmh NW 18.0 mph29.0 kmh 30.21 in1023.0 mb 0.00 in0.0 mm 0.00 in0.0 mm 0.00 in0.0 mm
07:32 PM 43.3°F6.3°C 32.0°F0.0°C 64% 9.0 mph WNW14.5 kmh WNW 18.0 mph29.0 kmh 30.21 in1023.0 mb 0.00 in0.0 mm 0.00 in0.0 mm 0.00 in0.0 mm
07:37 PM 43.2°F6.2°C 31.9°F-0.1°C 64% 7.0 mph NNW11.3 kmh NNW 14.0 mph22.5 kmh 30.21 in1023.0 mb 0.00 in0.0 mm 0.00 in0.0 mm 0.00 in0.0 mm
07:42 PM 43.2°F6.2°C 31.9°F-0.1°C 64% 7.0 mph NW11.3 kmh NW 14.0 mph22.5 kmh 30.21 in1023.0 mb 0.00 in0.0 mm 0.00 in0.0 mm 0.00 in0.0 mm
07:47 PM 43.2°F6.2°C 31.9°F-0.1°C 64% 9.0 mph NNW14.5 kmh NNW 12.0 mph19.3 kmh 30.22 in1023.4 mb 0.00 in0.0 mm 0.00 in0.0 mm 0.00 in0.0 mm
07:52 PM 43.1°F6.2°C 31.8°F-0.1°C 64% 4.0 mph NW6.4 kmh NW 16.0 mph25.7 kmh 30.21 in1023.0 mb 0.00 in0.0 mm 0.00 in0.0 mm 0.00 in0.0 mm
07:57 PM 43.0°F6.1°C 31.7°F-0.2°C 64% 4.0 mph N6.4 kmh N 16.0 mph25.7 kmh 30.21 in1023.0 mb 0.00 in0.0 mm 0.00 in0.0 mm 0.00 in0.0 mm
08:02 PM 43.0°F6.1°C 31.7°F-0.2°C 64% 7.0 mph N11.3 kmh N 16.0 mph25.7 kmh 30.21 in1023.0 mb 0.00 in0.0 mm 0.00 in0.0 mm 0.00 in0.0 mm
08:07 PM 43.0°F6.1°C 32.1°F0.1°C 65% 6.0 mph NW9.7 kmh NW 16.0 mph25.7 kmh 30.21 in1023.0 mb 0.00 in0.0 mm 0.00 in0.0 mm 0.00 in0.0 mm
08:12 PM 42.9°F6.1°C 32.0°F0.0°C 65% 1.0 mph NW1.6 kmh NW 13.0 mph20.9 kmh 30.21 in1023.0 mb 0.00 in0.0 mm 0.00 in0.0 mm 0.00 in0.0 mm
08:17 PM 42.9°F6.1°C 32.0°F0.0°C 65% 4.0 mph NW6.4 kmh NW 13.0 mph20.9 kmh 30.21 in1023.0 mb 0.00 in0.0 mm 0.00 in0.0 mm 0.00 in0.0 mm
08:22 PM 42.8°F6.0°C 31.9°F-0.1°C 65% 8.0 mph NW12.9 kmh NW 12.0 mph19.3 kmh 30.22 in1023.4 mb 0.00 in0.0 mm 0.00 in0.0 mm 0.00 in0.0 mm
08:27 PM 42.8°F6.0°C 31.9°F-0.1°C 65% Calm Calm 12.0 mph19.3 kmh 30.21 in1023.0 mb 0.00 in0.0 mm 0.00 in0.0 mm 0.00 in0.0 mm
08:32 PM 42.7°F5.9°C 31.8°F-0.1°C 65% 5.0 mph NNW8.0 kmh NNW 15.0 mph24.1 kmh 30.21 in1023.0 mb 0.00 in0.0 mm 0.00 in0.0 mm 0.00 in0.0 mm
08:37 PM 42.7°F5.9°C 31.8°F-0.1°C 65% 2.0 mph NW3.2 kmh NW 15.0 mph24.1 kmh 30.21 in1023.0 mb 0.00 in0.0 mm 0.00 in0.0 mm 0.00 in0.0 mm
08:42 PM 42.7°F5.9°C 32.1°F0.1°C 66% 11.0 mph NNW17.7 kmh NNW 15.0 mph24.1 kmh 30.21 in1023.0 mb 0.00 in0.0 mm 0.00 in0.0 mm 0.00 in0.0 mm
08:47 PM 42.7°F5.9°C 32.1°F0.1°C 66% 3.0 mph NW4.8 kmh NW 15.0 mph24.1 kmh 30.22 in1023.4 mb 0.00 in0.0 mm 0.00 in0.0 mm 0.00 in0.0 mm
08:52 PM 42.6°F5.9°C 32.0°F0.0°C 66% 3.0 mph N4.8 kmh N 13.0 mph20.9 kmh 30.21 in1023.0 mb 0.00 in0.0 mm 0.00 in0.0 mm 0.00 in0.0 mm
08:57 PM 42.6°F5.9°C 32.0°F0.0°C 66% 2.0 mph NW3.2 kmh NW 13.0 mph20.9 kmh 30.21 in1023.0 mb 0.00 in0.0 mm 0.00 in0.0 mm 0.00 in0.0 mm
09:02 PM 42.5°F5.8°C 32.0°F0.0°C 66% Calm Calm 12.0 mph19.3 kmh 30.21 in1023.0 mb 0.00 in0.0 mm 0.00 in0.0 mm 0.00 in0.0 mm
09:07 PM 42.5°F5.8°C 32.0°F0.0°C 66% 8.0 mph NNW12.9 kmh NNW 12.0 mph19.3 kmh 30.21 in1023.0 mb 0.00 in0.0 mm 0.00 in0.0 mm 0.00 in0.0 mm
09:12 PM 42.4°F5.8°C 32.2°F0.1°C 67% 3.0 mph NNW4.8 kmh NNW 10.0 mph16.1 kmh 30.21 in1023.0 mb 0.00 in0.0 mm 0.00 in0.0 mm 0.00 in0.0 mm
09:17 PM 42.3°F5.7°C 32.1°F0.1°C 67% 5.0 mph NW8.0 kmh NW 10.0 mph16.1 kmh 30.22 in1023.4 mb 0.00 in0.0 mm 0.00 in0.0 mm 0.00 in0.0 mm
09:22 PM 42.3°F5.7°C 32.1°F0.1°C 67% 7.0 mph NW11.3 kmh NW 14.0 mph22.5 kmh 30.22 in1023.4 mb 0.00 in0.0 mm 0.00 in0.0 mm 0.00 in0.0 mm
09:27 PM 42.2°F5.7°C 32.0°F0.0°C 67% 6.0 mph NW9.7 kmh NW 14.0 mph22.5 kmh 30.22 in1023.4 mb 0.00 in0.0 mm 0.00 in0.0 mm 0.00 in0.0 mm
09:32 PM 42.2°F5.7°C 32.0°F0.0°C 67% 8.0 mph NW12.9 kmh NW 14.0 mph22.5 kmh 30.22 in1023.4 mb 0.00 in0.0 mm 0.00 in0.0 mm 0.00 in0.0 mm
09:37 PM 42.2°F5.7°C 32.4°F0.2°C 68% 4.0 mph NNW6.4 kmh NNW 14.0 mph22.5 kmh 30.23 in1023.7 mb 0.00 in0.0 mm 0.00 in0.0 mm 0.00 in0.0 mm
09:42 PM 42.1°F5.6°C 32.3°F0.2°C 68% 2.0 mph 3.2 kmh 13.0 mph20.9 kmh 30.23 in1023.7 mb 0.00 in0.0 mm 0.00 in0.0 mm 0.00 in0.0 mm
09:47 PM 42.1°F5.6°C 32.3°F0.2°C 68% 5.0 mph NNW8.0 kmh NNW 13.0 mph20.9 kmh 30.22 in1023.4 mb 0.00 in0.0 mm 0.00 in0.0 mm 0.00 in0.0 mm
09:52 PM 42.1°F5.6°C 32.3°F0.2°C 68% 9.0 mph NW14.5 kmh NW 13.0 mph20.9 kmh 30.23 in1023.7 mb 0.00 in0.0 mm 0.00 in0.0 mm 0.00 in0.0 mm
09:57 PM 42.0°F5.6°C 32.2°F0.1°C 68% 11.0 mph NNW17.7 kmh NNW 14.0 mph22.5 kmh 30.23 in1023.7 mb 0.00 in0.0 mm 0.00 in0.0 mm 0.00 in0.0 mm
10:02 PM 42.1°F5.6°C 32.3°F0.2°C 68% 5.0 mph N8.0 kmh N 17.0 mph27.4 kmh 30.23 in1023.7 mb 0.00 in0.0 mm 0.00 in0.0 mm 0.00 in0.0 mm
10:07 PM 42.0°F5.6°C 32.2°F0.1°C 68% 7.0 mph NW11.3 kmh NW 17.0 mph27.4 kmh 30.23 in1023.7 mb 0.00 in0.0 mm 0.00 in0.0 mm 0.00 in0.0 mm
10:12 PM 42.0°F5.6°C 32.2°F0.1°C 68% 7.0 mph N11.3 kmh N 17.0 mph27.4 kmh 30.23 in1023.7 mb 0.00 in0.0 mm 0.00 in0.0 mm 0.00 in0.0 mm
10:17 PM 41.9°F5.5°C 32.5°F0.3°C 69% 5.0 mph NW8.0 kmh NW 17.0 mph27.4 kmh 30.24 in1024.0 mb 0.00 in0.0 mm 0.00 in0.0 mm 0.00 in0.0 mm
10:22 PM 41.9°F5.5°C 32.5°F0.3°C 69% 8.0 mph NW12.9 kmh NW 14.0 mph22.5 kmh 30.24 in1024.0 mb 0.00 in0.0 mm 0.00 in0.0 mm 0.00 in0.0 mm
10:27 PM 41.9°F5.5°C 32.5°F0.3°C 69% 8.0 mph NNW12.9 kmh NNW 14.0 mph22.5 kmh 30.25 in1024.4 mb 0.00 in0.0 mm 0.00 in0.0 mm 0.00 in0.0 mm
10:32 PM 41.9°F5.5°C 32.1°F0.1°C 68% 3.0 mph NW4.8 kmh NW 13.0 mph20.9 kmh 30.25 in1024.4 mb 0.00 in0.0 mm 0.00 in0.0 mm 0.00 in0.0 mm
10:37 PM 42.0°F5.6°C 32.2°F0.1°C 68% 9.0 mph WNW14.5 kmh WNW 15.0 mph24.1 kmh 30.25 in1024.4 mb 0.00 in0.0 mm 0.00 in0.0 mm 0.00 in0.0 mm
10:42 PM 41.9°F5.5°C 32.1°F0.1°C 68% 3.0 mph NNW4.8 kmh NNW 15.0 mph24.1 kmh 30.25 in1024.4 mb 0.00 in0.0 mm 0.00 in0.0 mm 0.00 in0.0 mm
10:47 PM 41.8°F5.4°C 32.4°F0.2°C 69% 6.0 mph NW9.7 kmh NW 15.0 mph24.1 kmh 30.24 in1024.0 mb 0.00 in0.0 mm 0.00 in0.0 mm 0.00 in0.0 mm
10:52 PM 41.7°F5.4°C 32.3°F0.2°C 69% 18.0 mph NNW29.0 kmh NNW 18.0 mph29.0 kmh 30.24 in1024.0 mb 0.00 in0.0 mm 0.00 in0.0 mm 0.00 in0.0 mm
10:57 PM 41.7°F5.4°C 32.3°F0.2°C 69% 9.0 mph N14.5 kmh N 18.0 mph29.0 kmh 30.24 in1024.0 mb 0.00 in0.0 mm 0.00 in0.0 mm 0.00 in0.0 mm
11:02 PM 41.6°F5.3°C 31.8°F-0.1°C 68% 3.0 mph NW4.8 kmh NW 18.0 mph29.0 kmh 30.24 in1024.0 mb 0.00 in0.0 mm 0.00 in0.0 mm 0.00 in0.0 mm
11:07 PM 41.6°F5.3°C 32.2°F0.1°C 69% 5.0 mph N8.0 kmh N 18.0 mph29.0 kmh 30.24 in1024.0 mb 0.00 in0.0 mm 0.00 in0.0 mm 0.00 in0.0 mm
11:12 PM 41.5°F5.3°C 32.1°F0.1°C 69% 4.0 mph NW6.4 kmh NW 16.0 mph25.7 kmh 30.24 in1024.0 mb 0.00 in0.0 mm 0.00 in0.0 mm 0.00 in0.0 mm
11:17 PM 41.5°F5.3°C 32.1°F0.1°C 69% 7.0 mph N11.3 kmh N 16.0 mph25.7 kmh 30.24 in1024.0 mb 0.00 in0.0 mm 0.00 in0.0 mm 0.00 in0.0 mm
11:22 PM 41.5°F5.3°C 32.1°F0.1°C 69% 8.0 mph NW12.9 kmh NW 16.0 mph25.7 kmh 30.24 in1024.0 mb 0.00 in0.0 mm 0.00 in0.0 mm 0.00 in0.0 mm
11:27 PM 41.4°F5.2°C 32.0°F0.0°C 69% 10.0 mph NW16.1 kmh NW 16.0 mph25.7 kmh 30.24 in1024.0 mb 0.00 in0.0 mm 0.00 in0.0 mm 0.00 in0.0 mm
11:32 PM 41.3°F5.2°C 31.9°F-0.1°C 69% 6.0 mph NW9.7 kmh NW 12.0 mph19.3 kmh 30.24 in1024.0 mb 0.00 in0.0 mm 0.00 in0.0 mm 0.00 in0.0 mm
11:37 PM 41.3°F5.2°C 31.9°F-0.1°C 69% 2.0 mph NNW3.2 kmh NNW 19.0 mph30.6 kmh 30.24 in1024.0 mb 0.00 in0.0 mm 0.00 in0.0 mm 0.00 in0.0 mm
11:42 PM 41.3°F5.2°C 31.9°F-0.1°C 69% 2.0 mph NW3.2 kmh NW 19.0 mph30.6 kmh 30.24 in1024.0 mb 0.00 in0.0 mm 0.00 in0.0 mm 0.00 in0.0 mm
11:47 PM 41.2°F5.1°C 31.8°F-0.1°C 69% 7.0 mph WNW11.3 kmh WNW 19.0 mph30.6 kmh 30.23 in1023.7 mb 0.00 in0.0 mm 0.00 in0.0 mm 0.00 in0.0 mm
11:52 PM 41.1°F5.1°C 31.7°F-0.2°C 69% 8.0 mph NNW12.9 kmh NNW 19.0 mph30.6 kmh 30.23 in1023.7 mb 0.00 in0.0 mm 0.00 in0.0 mm 0.00 in0.0 mm
11:57 PM 41.1°F5.1°C 31.7°F-0.2°C 69% 7.0 mph NW11.3 kmh NW 15.0 mph24.1 kmh 30.24 in1024.0 mb 0.00 in0.0 mm 0.00 in0.0 mm 0.00 in0.0 mm